Time;durP1;ratioP1;P1;durP2;ratioP2;P2;SDS_P1;SDS_P2;PMS_P1;PMS_P2;Temp;Humidity;BMP_temperature;BMP_pressure;BME280_temperature;BME280_humidity;BME280_pressure;Samples;Min_cycle;Max_cycle;Signal;HPM_P1;HPM_P2
2023/04/15 00:01:20;;;;;;;;;21.25;16.50;;;;;9.79;83.14;100172.41;4999058;28;45350;-42
2023/04/15 00:03:46;;;;;;;;;13.50;10.50;;;;;9.75;83.59;100170.06;4998465;28;46866;-42
2023/04/15 00:06:12;;;;;;;;;18.00;13.25;;;;;9.78;82.77;100176.06;4998860;28;45161;-40
2023/04/15 00:08:38;;;;;;;;;19.00;15.00;;;;;9.70;82.37;100150.28;4998659;28;45503;-41
2023/04/15 00:11:04;;;;;;;;;20.00;16.75;;;;;9.80;83.28;100166.94;4998674;28;45458;-41
2023/04/15 00:13:31;;;;;;;;;19.00;17.50;;;;;9.79;82.78;100157.31;4998499;28;46142;-40
2023/04/15 00:15:57;;;;;;;;;18.75;13.25;;;;;9.78;82.67;100147.66;4998203;28;45378;-41
2023/04/15 00:18:23;;;;;;;;;18.00;13.25;;;;;9.75;83.10;100140.84;4998775;28;45332;-43
2023/04/15 00:20:49;;;;;;;;;17.75;17.25;;;;;9.73;83.33;100139.31;4998767;28;45425;-43
2023/04/15 00:23:14;;;;;;;;;16.50;13.00;;;;;9.70;83.65;100135.16;4998189;28;46198;-41
2023/04/15 00:25:39;;;;;;;;;13.50;13.50;;;;;9.66;83.24;100123.19;4998591;28;45361;-45
2023/04/15 00:28:05;;;;;;;;;16.75;15.50;;;;;9.66;83.08;100133.81;4998160;28;45498;-41
2023/04/15 00:30:30;;;;;;;;;13.25;12.00;;;;;9.63;84.06;100120.84;4997872;28;45503;-41
2023/04/15 00:32:55;;;;;;;;;20.00;14.50;;;;;9.68;83.23;100125.69;4997753;28;46170;-42
2023/04/15 00:35:21;;;;;;;;;13.75;11.25;;;;;9.66;83.68;100127.66;4998155;28;45339;-43
2023/04/15 00:37:46;;;;;;;;;14.50;13.50;;;;;9.64;83.55;100119.00;4998477;28;45276;-44
2023/04/15 00:40:12;;;;;;;;;14.25;11.25;;;;;9.64;83.98;100121.66;4998366;28;45404;-45
2023/04/15 00:42:38;;;;;;;;;15.50;10.75;;;;;9.59;84.05;100103.53;4997985;28;46051;-44
2023/04/15 00:45:04;;;;;;;;;11.75;11.00;;;;;9.65;83.84;100113.56;4997895;28;45449;-42
2023/04/15 00:47:32;;;;;;;;;12.25;8.75;;;;;9.67;83.42;100108.91;4998153;28;45344;-43
2023/04/15 00:49:58;;;;;;;;;13.25;11.00;;;;;9.60;83.93;100097.25;4998356;28;45318;-44
2023/04/15 00:52:23;;;;;;;;;16.00;11.75;;;;;9.66;83.16;100106.44;4997764;28;47172;-44
2023/04/15 00:54:50;;;;;;;;;14.00;14.00;;;;;9.67;83.81;100111.56;4998169;28;45250;-42
2023/04/15 00:57:15;;;;;;;;;15.25;12.00;;;;;9.71;83.87;100102.28;4997925;28;45428;-44
2023/04/15 00:59:41;;;;;;;;;13.50;12.00;;;;;9.73;83.84;100108.31;4997961;28;45532;-43
2023/04/15 01:02:06;;;;;;;;;14.00;14.00;;;;;9.74;84.30;100103.81;4997958;28;45412;-43
2023/04/15 01:04:32;;;;;;;;;14.75;14.25;;;;;9.72;84.71;100103.97;4997714;28;46173;-44
2023/04/15 01:06:57;;;;;;;;;18.00;13.75;;;;;9.67;84.90;100095.63;4997965;28;45432;-43
2023/04/15 01:09:23;;;;;;;;;17.25;13.25;;;;;9.65;85.03;100079.03;4998105;28;45397;-45
2023/04/15 01:11:49;;;;;;;;;19.00;13.50;;;;;9.80;84.87;100107.66;4979605;28;46313;-43
2023/04/15 01:14:15;;;;;;;;;20.50;13.50;;;;;9.77;85.23;100107.97;4997982;28;45546;-44
2023/04/15 01:16:40;;;;;;;;;12.25;12.25;;;;;9.72;84.97;100100.47;4997650;28;45726;-43
2023/04/15 01:19:07;;;;;;;;;14.75;10.50;;;;;9.70;86.25;100103.28;4997960;28;45357;-44
2023/04/15 01:21:36;;;;;;;;;16.50;10.25;;;;;9.70;85.66;100108.59;4997631;28;45298;-42
2023/04/15 01:24:07;;;;;;;;;18.50;14.50;;;;;9.70;85.85;100107.78;4997255;28;45389;-44
2023/04/15 01:26:33;;;;;;;;;15.00;12.00;;;;;9.73;86.21;100099.47;4997485;28;45298;-44
2023/04/15 01:28:58;;;;;;;;;13.00;11.00;;;;;9.68;86.27;100091.16;4997643;28;45243;-43
2023/04/15 01:31:23;;;;;;;;;16.50;12.00;;;;;9.68;87.25;100091.97;4996979;28;45505;-44
2023/04/15 01:33:49;;;;;;;;;16.25;14.50;;;;;9.63;88.12;100091.63;4997272;28;45369;-41
2023/04/15 01:36:14;;;;;;;;;17.50;14.50;;;;;9.63;87.87;100083.66;4997472;28;45187;-43
2023/04/15 01:38:40;;;;;;;;;17.00;13.50;;;;;9.60;88.18;100094.59;4997673;28;45313;-43
2023/04/15 01:41:06;;;;;;;;;15.00;13.00;;;;;9.58;88.54;100082.47;4997078;28;46001;-43
2023/04/15 01:43:33;;;;;;;;;15.00;10.25;;;;;9.56;87.64;100082.59;4996474;28;45475;-41
2023/04/15 01:45:58;;;;;;;;;14.00;11.00;;;;;9.53;88.54;100085.59;4997026;28;45491;-42
2023/04/15 01:48:23;;;;;;;;;15.50;9.00;;;;;9.50;88.64;100093.88;4997176;28;45324;-42
2023/04/15 01:50:49;;;;;;;;;17.25;11.50;;;;;9.51;88.59;100106.13;4996999;28;45406;-43
2023/04/15 01:53:15;;;;;;;;;16.25;12.50;;;;;9.50;88.57;100096.53;4997070;28;45337;-45
2023/04/15 01:55:40;;;;;;;;;13.25;13.25;;;;;9.50;89.84;100091.22;4997105;28;45385;-43
2023/04/15 01:58:06;;;;;;;;;18.25;13.75;;;;;9.45;90.51;100094.34;4997204;28;45294;-43
2023/04/15 02:00:31;;;;;;;;;22.25;13.25;;;;;9.50;90.07;100099.19;4996856;28;46477;-44
2023/04/15 02:02:58;;;;;;;;;17.25;15.00;;;;;9.40;90.77;100079.88;4997066;28;45354;-42
2023/04/15 02:05:24;;;;;;;;;16.75;14.00;;;;;9.54;90.06;100094.38;4997167;28;45412;-44
2023/04/15 02:07:49;;;;;;;;;13.25;13.00;;;;;9.58;90.97;100093.91;4997042;28;45971;-42
2023/04/15 02:10:15;;;;;;;;;10.50;10.50;;;;;9.63;90.21;100102.25;4996737;28;46247;-44
2023/04/15 02:12:41;;;;;;;;;15.75;11.00;;;;;9.58;89.47;100082.47;4996768;28;45326;-45
2023/04/15 02:15:07;;;;;;;;;14.00;13.25;;;;;9.69;89.58;100096.31;4997026;28;45365;-43
2023/04/15 02:17:34;;;;;;;;;16.00;11.00;;;;;9.75;89.87;100100.16;4997139;28;45489;-43
2023/04/15 02:19:59;;;;;;;;;14.75;11.25;;;;;9.77;89.41;100102.66;4996672;28;46423;-43
2023/04/15 02:22:25;;;;;;;;;14.75;8.00;;;;;9.77;89.77;100102.66;4996996;28;45354;-43
2023/04/15 02:24:50;;;;;;;;;11.00;11.00;;;;;9.80;89.05;100108.50;4997023;28;45377;-44
2023/04/15 02:27:17;;;;;;;;;16.50;12.25;;;;;9.68;89.29;100084.00;4997193;28;45527;-43
2023/04/15 02:29:44;;;;;;;;;11.50;9.25;;;;;9.81;89.61;100104.00;4996696;28;46288;-43
2023/04/15 02:32:10;;;;;;;;;12.25;11.00;;;;;9.84;89.50;100107.19;4996606;28;45216;-43
2023/04/15 02:34:38;;;;;;;;;11.00;10.50;;;;;9.89;89.97;100112.03;4996763;28;45381;-41
2023/04/15 02:37:04;;;;;;;;;11.50;9.50;;;;;9.91;89.68;100120.69;4996924;28;45288;-41
2023/04/15 02:39:29;;;;;;;;;11.00;9.00;;;;;9.93;89.89;100119.53;4996443;28;46341;-43
2023/04/15 02:41:57;;;;;;;;;12.50;12.50;;;;;9.97;89.88;100130.66;4996738;28;45333;-43
2023/04/15 02:44:23;;;;;;;;;9.25;9.00;;;;;10.00;89.58;100131.19;4996273;28;45353;-41
2023/04/15 02:46:51;;;;;;;;;13.50;11.50;;;;;10.02;89.77;100128.38;4996854;28;45242;-41
2023/04/15 02:49:17;;;;;;;;;11.25;8.00;;;;;10.05;89.48;100136.03;4996454;28;46103;-44
2023/04/15 02:51:42;;;;;;;;;14.00;11.00;;;;;10.07;89.77;100141.19;4996288;28;45360;-45
2023/04/15 02:54:07;;;;;;;;;14.75;11.25;;;;;10.08;89.82;100141.03;4997095;28;45401;-44
2023/04/15 02:56:33;;;;;;;;;8.00;8.00;;;;;10.07;89.59;100142.03;5000030;28;45335;-42
2023/04/15 02:58:58;;;;;;;;;10.25;10.25;;;;;10.10;89.77;100152.31;4999657;28;45477;-43
2023/04/15 03:01:23;;;;;;;;;16.75;10.75;;;;;10.12;90.11;100157.50;4999638;28;45321;-43
2023/04/15 03:03:49;;;;;;;;;14.67;10.67;;;;;10.11;89.80;100158.47;4999661;28;45365;-44
2023/04/15 03:06:14;;;;;;;;;8.00;8.00;;;;;10.13;89.92;100157.34;5000036;28;45390;-42
2023/04/15 03:08:40;;;;;;;;;8.33;7.00;;;;;10.16;89.84;100164.16;4999609;28;45927;-40
2023/04/15 03:11:06;;;;;;;;;11.33;8.00;;;;;10.17;89.42;100166.66;4999524;28;45808;-41
2023/04/15 03:13:32;;;;;;;;;12.33;8.33;;;;;10.18;88.25;100175.47;4999461;28;45352;-41
2023/04/15 03:15:57;;;;;;;;;13.00;10.33;;;;;10.16;88.82;100177.47;4999498;28;45447;-44
2023/04/15 03:18:22;;;;;;;;;9.00;7.33;;;;;10.19;88.78;100179.78;4999485;28;46062;-40
2023/04/15 03:20:48;;;;;;;;;17.67;11.00;;;;;10.18;88.53;100181.59;4999336;28;45452;-45
2023/04/15 03:23:13;;;;;;;;;11.33;11.33;;;;;10.20;88.08;100190.28;4999576;28;45863;-43
2023/04/15 03:25:39;;;;;;;;;11.67;9.00;;;;;10.20;87.98;100195.59;4999569;28;45450;-43
2023/04/15 03:28:05;;;;;;;;;16.00;12.25;;;;;10.20;87.61;100200.06;4998829;28;46224;-44
2023/04/15 03:30:30;;;;;;;;;15.00;13.00;;;;;10.19;88.08;100201.88;4999173;28;45381;-43
2023/04/15 03:32:55;;;;;;;;;22.00;15.00;;;;;10.21;87.97;100201.72;4999268;28;45253;-45
2023/04/15 03:35:21;;;;;;;;;15.00;7.00;;;;;10.19;87.88;100195.72;4981727;28;45409;-42
2023/04/15 03:37:47;;;;;;;;;21.25;16.00;;;;;10.21;87.49;100202.56;4998934;28;53481;-45
2023/04/15 03:40:13;;;;;;;;;16.00;11.33;;;;;10.12;87.27;100194.72;4998921;28;45319;-42
2023/04/15 03:42:39;;;;;;;;;21.50;15.00;;;;;10.21;87.37;100205.22;4998687;28;45457;-45
2023/04/15 03:45:06;;;;;;;;;14.33;11.33;;;;;10.19;87.35;100199.22;4999073;28;45534;-45
2023/04/15 03:47:31;;;;;;;;;15.33;12.67;;;;;10.19;87.07;100201.03;4998925;28;47241;-45
2023/04/15 03:49:57;;;;;;;;;13.67;10.00;;;;;10.22;86.25;100214.03;4998803;28;45442;-42
2023/04/15 03:52:22;;;;;;;;;9.00;9.00;;;;;10.19;86.57;100212.50;4998987;28;45305;-43
2023/04/15 03:54:47;;;;;;;;;9.67;6.00;;;;;10.16;85.16;100212.00;4998889;28;45395;-45
2023/04/15 03:57:13;;;;;;;;;9.00;7.33;;;;;10.16;85.84;100220.81;4998641;28;45405;-43
2023/04/15 03:59:38;;;;;;;;;11.00;7.00;;;;;10.14;85.55;100217.47;4998631;28;45298;-43
2023/04/15 04:02:03;;;;;;;;;9.67;6.00;;;;;10.13;84.80;100222.94;4998853;28;45380;-41
2023/04/15 04:04:28;;;;;;;;;8.00;8.00;;;;;10.10;84.89;100232.06;4999357;28;45536;-43
2023/04/15 04:06:54;;;;;;;;;6.00;6.00;;;;;10.04;85.33;100232.69;4998787;28;45267;-43
2023/04/15 04:09:19;;;;;;;;;6.33;6.00;;;;;10.01;84.54;100235.66;4999041;28;45547;-43
2023/04/15 04:11:45;;;;;;;;;9.67;3.67;;;;;9.98;84.34;100239.44;4998898;28;45282;-43
2023/04/15 04:14:10;;;;;;;;;7.67;5.00;;;;;9.95;84.32;100236.28;4998625;28;45402;-44
2023/04/15 04:16:35;;;;;;;;;3.00;3.00;;;;;9.92;83.98;100240.06;4998588;28;45976;-43
2023/04/15 04:19:00;;;;;;;;;2.33;2.00;;;;;9.87;84.21;100236.22;4998667;28;45329;-45
2023/04/15 04:21:26;;;;;;;;;5.00;5.00;;;;;9.85;84.55;100246.16;4998687;28;45283;-44
2023/04/15 04:23:52;;;;;;;;;5.33;3.00;;;;;9.82;84.25;100242.00;4998778;28;45200;-43
2023/04/15 04:26:18;;;;;;;;;3.00;3.00;;;;;9.75;85.40;100240.94;4998502;28;45873;-44
2023/04/15 04:28:43;;;;;;;;;2.00;2.00;;;;;9.77;84.58;100249.56;4980622;28;45273;-44
2023/04/15 04:31:09;;;;;;;;;1.67;1.67;;;;;9.71;84.62;100252.84;4998439;28;45494;-43
2023/04/15 04:33:34;;;;;;;;;4.33;2.00;;;;;9.72;84.30;100263.31;4998462;28;45380;-42
2023/04/15 04:36:00;;;;;;;;;1.67;1.67;;;;;9.70;84.48;100262.66;4998144;28;46430;-45
2023/04/15 04:38:25;;;;;;;;;2.00;2.00;;;;;9.57;84.90;100243.63;4998198;28;45646;-42
2023/04/15 04:40:50;;;;;;;;;0.00;0.00;;;;;9.68;84.69;100269.09;4998442;28;45426;-45
2023/04/15 04:43:16;;;;;;;;;3.00;1.00;;;;;9.65;84.99;100270.25;4998381;28;45518;-44
2023/04/15 04:45:41;;;;;;;;;1.00;1.00;;;;;9.63;84.23;100276.69;4997851;28;45515;-43
2023/04/15 04:48:07;;;;;;;;;0.00;0.00;;;;;9.60;84.37;100285.78;4998161;28;45330;-44
2023/04/15 04:50:34;;;;;;;;;2.00;0.00;;;;;9.61;85.50;100278.69;4998183;28;45380;-44
2023/04/15 04:53:00;;;;;;;;;0.00;0.00;;;;;9.56;85.09;100276.44;4998407;28;45227;-44
2023/04/15 04:55:26;;;;;;;;;0.00;0.00;;;;;9.60;84.63;100279.63;4997891;28;46268;-44
2023/04/15 04:57:51;;;;;;;;;0.00;0.00;;;;;9.58;84.98;100285.09;4997933;28;45692;-42
2023/04/15 05:00:16;;;;;;;;;0.00;0.00;;;;;9.57;85.06;100290.59;4997870;28;45310;-44
2023/04/15 05:02:42;;;;;;;;;0.33;0.33;;;;;9.59;84.55;100293.91;4998239;28;45282;-42
2023/04/15 05:05:09;;;;;;;;;0.67;0.67;;;;;9.58;85.31;100305.53;4997898;28;46907;-43
2023/04/15 05:07:34;;;;;;;;;0.67;0.67;;;;;9.58;85.32;100300.22;4997907;28;45366;-44
2023/04/15 05:09:59;;;;;;;;;0.00;0.00;;;;;9.61;85.79;100316.69;4997756;28;45324;-43
2023/04/15 05:12:25;;;;;;;;;0.00;0.00;;;;;9.63;85.50;100317.34;4998254;28;45434;-42
2023/04/15 05:14:51;;;;;;;;;0.00;0.00;;;;;9.66;85.30;100326.84;4997451;28;46902;-42
2023/04/15 05:17:16;;;;;;;;;2.00;0.67;;;;;9.59;84.41;100318.63;4997332;28;45349;-43
2023/04/15 05:19:41;;;;;;;;;1.00;0.00;;;;;9.67;84.01;100334.66;4998018;28;45381;-43
2023/04/15 05:22:07;;;;;;;;;0.00;0.00;;;;;9.66;83.54;100335.66;4997894;28;45367;-42
2023/04/15 05:24:32;;;;;;;;;0.00;0.00;;;;;9.66;84.26;100345.44;4997614;28;46262;-45
2023/04/15 05:26:57;;;;;;;;;1.33;1.33;;;;;9.68;83.84;100360.22;4997584;28;45441;-45
2023/04/15 05:29:23;;;;;;;;;0.00;0.00;;;;;9.68;83.54;100354.06;4997725;28;45251;-46
2023/04/15 05:31:48;;;;;;;;;0.00;0.00;;;;;9.71;83.64;100361.75;4997910;28;45331;-43
2023/04/15 05:34:15;;;;;;;;;0.33;0.00;;;;;9.69;83.23;100367.22;4997139;28;45395;-45
2023/04/15 05:36:41;;;;;;;;;0.00;0.00;;;;;9.71;83.96;100367.91;4997549;28;45381;-42
2023/04/15 05:39:06;;;;;;;;;1.00;1.00;;;;;9.69;83.94;100371.69;4997382;28;45473;-43
2023/04/15 05:41:31;;;;;;;;;1.00;1.00;;;;;9.73;84.06;100384.53;4997533;28;45385;-44
2023/04/15 05:43:57;;;;;;;;;2.00;1.00;;;;;9.64;83.41;100360.69;4997134;28;46216;-44
2023/04/15 05:46:22;;;;;;;;;1.00;1.00;;;;;9.78;83.24;100391.22;4997117;28;45398;-43
2023/04/15 05:48:48;;;;;;;;;1.00;1.00;;;;;9.79;83.15;100400.84;4997543;28;45362;-43
2023/04/15 05:51:13;;;;;;;;;0.00;0.00;;;;;9.78;83.28;100408.00;4997702;28;45217;-42
2023/04/15 05:53:40;;;;;;;;;1.00;0.00;;;;;9.79;83.68;100400.84;4997258;28;45317;-41
2023/04/15 05:56:06;;;;;;;;;2.00;0.00;;;;;9.77;83.27;100402.81;4997255;28;45390;-41
2023/04/15 05:58:31;;;;;;;;;2.67;1.00;;;;;9.84;83.37;100427.81;4997156;28;45378;-41
2023/04/15 06:00:57;;;;;;;;;3.00;1.33;;;;;9.85;83.85;100427.63;4997272;28;45474;-41
2023/04/15 06:03:22;;;;;;;;;6.00;2.00;;;;;9.86;83.54;100432.00;4997235;28;46082;-49
2023/04/15 06:05:48;;;;;;;;;2.00;2.00;;;;;9.85;83.53;100435.59;4996993;28;45318;-43
2023/04/15 06:08:13;;;;;;;;;3.00;1.00;;;;;9.88;83.98;100437.16;4997273;28;45313;-43
2023/04/15 06:10:39;;;;;;;;;2.00;1.67;;;;;9.90;83.55;100437.81;4997409;28;45436;-42
2023/04/15 06:13:04;;;;;;;;;2.00;2.00;;;;;9.92;83.66;100439.34;4996517;28;45389;-42
2023/04/15 06:15:30;;;;;;;;;6.00;6.00;;;;;9.93;83.48;100446.31;4996604;28;45342;-43
2023/04/15 06:17:56;;;;;;;;;3.00;2.00;;;;;9.92;83.56;100444.66;4996931;28;45276;-41
2023/04/15 06:20:21;;;;;;;;;2.67;2.00;;;;;9.96;83.13;100458.50;4997455;28;45223;-44
2023/04/15 06:22:47;;;;;;;;;1.00;1.00;;;;;9.97;83.20;100470.78;4996813;28;46003;-41
2023/04/15 06:25:12;;;;;;;;;3.67;2.00;;;;;9.99;83.17;100474.13;4997161;28;45226;-40
2023/04/15 06:27:38;;;;;;;;;1.67;1.67;;;;;9.99;83.38;100482.94;4996942;28;45331;-42
2023/04/15 06:30:05;;;;;;;;;2.00;2.00;;;;;9.93;82.90;100477.38;4998743;28;45494;-42
2023/04/15 06:32:31;;;;;;;;;1.00;1.00;;;;;10.01;83.11;100493.41;5000293;28;46185;-41
2023/04/15 06:34:57;;;;;;;;;2.00;2.00;;;;;10.05;83.21;100507.25;5000053;28;45446;-42
2023/04/15 06:37:22;;;;;;;;;3.00;3.00;;;;;10.11;83.57;100506.63;5000291;28;45412;-44
2023/04/15 06:39:47;;;;;;;;;2.00;2.00;;;;;10.14;83.14;100509.84;5000386;28;45345;-42
2023/04/15 06:42:13;;;;;;;;;2.33;2.33;;;;;10.17;83.09;100514.84;4999964;28;45986;-43
2023/04/15 06:44:38;;;;;;;;;1.00;1.00;;;;;10.21;83.21;100524.22;5000148;28;45440;-43
2023/04/15 06:47:04;;;;;;;;;6.00;2.00;;;;;10.25;82.93;100527.44;4999900;28;45275;-44
2023/04/15 06:49:29;;;;;;;;;2.00;2.00;;;;;10.26;82.77;100525.63;5000148;28;45193;-44
2023/04/15 06:51:55;;;;;;;;;1.67;1.67;;;;;10.25;82.47;100538.06;4999743;28;46310;-43
2023/04/15 06:54:20;;;;;;;;;1.33;1.00;;;;;10.27;82.08;100537.91;4999747;28;45382;-40
2023/04/15 06:56:46;;;;;;;;;3.00;2.00;;;;;10.27;82.46;100537.91;4999959;28;45344;-41
2023/04/15 06:59:13;;;;;;;;;1.00;1.00;;;;;10.30;82.16;100551.75;5000168;28;45382;-41
2023/04/15 07:01:39;;;;;;;;;1.67;1.67;;;;;10.30;81.96;100556.22;4999443;28;46991;-43
2023/04/15 07:04:05;;;;;;;;;1.33;1.00;;;;;10.31;82.15;100563.22;4999591;28;45369;-42
2023/04/15 07:06:31;;;;;;;;;0.67;0.67;;;;;10.31;82.40;100571.19;4999670;28;45686;-43
2023/04/15 07:08:57;;;;;;;;;4.33;1.00;;;;;10.30;82.12;100564.22;4999922;28;45374;-43
2023/04/15 07:11:22;;;;;;;;;1.00;1.00;;;;;10.31;82.01;100574.69;4999121;28;45477;-44
2023/04/15 07:13:47;;;;;;;;;1.33;1.33;;;;;10.33;82.30;100585.19;4999299;28;45460;-44
2023/04/15 07:16:13;;;;;;;;;1.00;1.00;;;;;10.33;82.07;100595.81;4999283;28;45397;-44
2023/04/15 07:18:41;;;;;;;;;1.00;1.00;;;;;10.34;82.42;100590.34;4999623;28;45521;-43
2023/04/15 07:21:06;;;;;;;;;2.67;1.33;;;;;10.34;82.51;100600.16;4999471;28;46041;-44
2023/04/15 07:23:31;;;;;;;;;2.00;2.00;;;;;10.34;82.22;100606.31;4999340;28;45198;-41
2023/04/15 07:25:57;;;;;;;;;0.00;0.00;;;;;10.39;82.07;100603.19;4999581;28;45233;-46
2023/04/15 07:28:22;;;;;;;;;3.00;0.67;;;;;10.44;82.11;100616.88;4999806;28;45528;-43
2023/04/15 07:30:47;;;;;;;;;1.00;1.00;;;;;10.49;82.23;100617.25;4999110;28;50609;-42
2023/04/15 07:33:13;;;;;;;;;0.00;0.00;;;;;10.56;82.03;100625.50;4999618;28;45474;-44
2023/04/15 07:35:38;;;;;;;;;0.00;0.00;;;;;10.61;81.88;100618.72;4999689;28;45481;-44
2023/04/15 07:38:04;;;;;;;;;0.00;0.00;;;;;10.70;81.54;100630.28;4999796;28;45275;-43
2023/04/15 07:40:29;;;;;;;;;0.00;0.00;;;;;10.78;81.23;100634.88;4998875;28;45255;-46
2023/04/15 07:42:57;;;;;;;;;2.67;0.00;;;;;10.79;80.88;100639.19;4981419;28;45691;-45
2023/04/15 07:45:23;;;;;;;;;1.00;1.00;;;;;10.82;81.16;100653.03;4999412;28;45372;-45
2023/04/15 07:47:50;;;;;;;;;1.67;1.00;;;;;10.83;81.23;100654.72;4999027;28;45477;-43
2023/04/15 07:50:16;;;;;;;;;0.00;0.00;;;;;10.87;81.46;100664.09;4999136;28;46094;-44
2023/04/15 07:52:42;;;;;;;;;1.00;1.00;;;;;10.93;80.81;100670.63;4999014;28;45362;-43
2023/04/15 07:55:08;;;;;;;;;1.00;1.00;;;;;11.05;80.58;100680.06;4999110;28;45286;-43
2023/04/15 07:57:34;;;;;;;;;1.00;1.00;;;;;11.10;80.29;100672.47;4999236;28;45308;-42
2023/04/15 08:00:00;;;;;;;;;1.33;1.33;;;;;11.22;79.86;100687.22;4998581;28;46250;-43
2023/04/15 08:02:26;;;;;;;;;1.67;1.67;;;;;11.29;78.93;100694.59;4981059;28;45525;-42
2023/04/15 08:04:52;;;;;;;;;0.33;0.33;;;;;11.30;78.02;100693.63;4999054;28;45408;-42
2023/04/15 08:07:18;;;;;;;;;1.33;1.33;;;;;11.30;77.87;100702.44;4999145;28;45479;-41
2023/04/15 08:09:43;;;;;;;;;2.67;1.00;;;;;11.29;77.59;100702.56;4998713;28;47516;-42
2023/04/15 08:12:12;;;;;;;;;1.00;1.00;;;;;11.25;78.05;100704.72;4998695;28;45379;-41
2023/04/15 08:14:37;;;;;;;;;1.00;1.00;;;;;11.37;77.27;100710.63;4998819;28;45364;-42
2023/04/15 08:17:03;;;;;;;;;3.00;1.00;;;;;11.47;76.58;100714.91;4998731;28;45384;-42
2023/04/15 08:19:29;;;;;;;;;0.00;0.00;;;;;11.53;76.59;100723.28;4998611;28;46268;-41
2023/04/15 08:21:54;;;;;;;;;3.00;1.00;;;;;11.55;76.20;100731.97;4998492;28;45409;-42
2023/04/15 08:24:20;;;;;;;;;3.00;1.67;;;;;11.58;75.88;100735.13;4998708;28;45403;-43
2023/04/15 08:26:46;;;;;;;;;2.00;1.00;;;;;11.62;75.92;100736.50;4998890;28;45408;-41
2023/04/15 08:29:11;;;;;;;;;2.00;2.00;;;;;11.66;75.86;100758.34;4998636;28;46200;-41
2023/04/15 08:31:37;;;;;;;;;2.00;2.00;;;;;11.69;75.59;100761.56;4998468;28;45611;-41
2023/04/15 08:34:02;;;;;;;;;1.00;1.00;;;;;11.74;75.40;100745.09;4998556;28;45331;-41
2023/04/15 08:36:28;;;;;;;;;1.00;1.00;;;;;11.85;74.43;100762.72;4998656;28;45475;-40
2023/04/15 08:38:53;;;;;;;;;1.00;1.00;;;;;11.84;74.26;100779.69;4997753;28;46025;-41
2023/04/15 08:41:24;;;;;;;;;1.00;1.00;;;;;11.78;74.31;100765.13;4998306;28;45407;-41
2023/04/15 08:43:56;;;;;;;;;1.00;1.00;;;;;11.68;73.91;100772.38;4998047;28;45365;-41
2023/04/15 08:46:22;;;;;;;;;0.67;0.67;;;;;11.64;73.86;100782.50;4998485;28;45320;-42
2023/04/15 08:48:48;;;;;;;;;3.00;3.00;;;;;11.55;73.97;100799.41;4997911;28;45269;-42
2023/04/15 08:51:15;;;;;;;;;2.00;2.00;;;;;11.52;73.85;100791.72;4997910;28;45430;-42
2023/04/15 08:53:42;;;;;;;;;3.00;1.00;;;;;11.48;74.35;100804.47;4997535;28;45369;-41
2023/04/15 08:56:09;;;;;;;;;0.00;0.00;;;;;11.50;74.17;100806.97;4998185;28;45435;-41
2023/04/15 08:58:35;;;;;;;;;2.00;2.00;;;;;11.47;74.49;100826.78;4998075;28;47156;-41
2023/04/15 09:01:00;;;;;;;;;22.67;13.00;;;;;11.48;74.43;100824.97;4997958;28;45267;-41
2023/04/15 09:03:27;;;;;;;;;2.33;1.33;;;;;11.58;74.79;100832.88;4997940;28;45527;-42
2023/04/15 09:05:53;;;;;;;;;3.33;2.00;;;;;11.69;75.12;100828.19;4998269;28;45338;-47
2023/04/15 09:08:19;;;;;;;;;1.00;1.00;;;;;11.89;74.13;100833.41;4997894;28;45321;-42
2023/04/15 09:10:44;;;;;;;;;1.00;1.00;;;;;12.10;73.72;100838.41;4997853;28;45176;-43
2023/04/15 09:13:10;;;;;;;;;1.33;1.00;;;;;12.47;73.49;100847.03;4998024;28;45285;-41
2023/04/15 09:15:37;;;;;;;;;2.00;1.00;;;;;12.93;71.00;100839.59;4997984;28;45415;-41
2023/04/15 09:18:03;;;;;;;;;1.00;1.00;;;;;13.11;70.52;100844.88;4997415;28;46265;-41
2023/04/15 09:20:29;;;;;;;;;3.33;1.67;;;;;13.56;68.58;100853.53;4997641;28;45653;-42
2023/04/15 09:22:55;;;;;;;;;3.00;1.00;;;;;13.95;66.84;100837.75;4997824;28;45334;-40
2023/04/15 09:25:20;;;;;;;;;1.00;1.00;;;;;14.45;65.51;100853.63;4998138;28;45370;-42
2023/04/15 09:27:59;;;;;;;;;1.00;1.00;;;;;14.54;64.50;100858.97;4997536;28;46253;-40
2023/04/15 09:30:27;;;;;;;;;6.00;1.33;;;;;14.64;64.15;100870.34;4997400;28;45478;-42
2023/04/15 09:33:09;;;;;;;;;2.33;1.00;;;;;14.54;64.02;100872.34;4997560;28;45349;-41
2023/04/15 09:35:35;;;;;;;;;3.00;1.67;;;;;14.46;63.23;100873.19;4997725;28;45534;-40
2023/04/15 09:38:08;;;;;;;;;1.00;1.00;;;;;14.20;64.97;100882.22;4997416;28;46336;-40
2023/04/15 09:40:40;;;;;;;;;1.67;1.67;;;;;13.91;64.36;100873.84;4997130;28;45348;-44
2023/04/15 09:43:07;;;;;;;;;1.00;1.00;;;;;13.79;64.60;100896.56;4997383;28;45519;-41
2023/04/15 09:45:34;;;;;;;;;2.00;2.00;;;;;13.57;65.46;100897.97;4980164;28;45257;-41
2023/04/15 09:48:24;;;;;;;;;1.67;1.67;;;;;13.34;66.58;100908.44;4997256;28;46288;-40
2023/04/15 09:50:49;;;;;;;;;2.00;2.00;;;;;13.17;66.75;100911.00;4997317;28;45361;-41
2023/04/15 09:53:21;;;;;;;;;2.67;1.00;;;;;13.06;66.69;100911.28;4997391;28;45347;-42
2023/04/15 09:55:56;;;;;;;;;4.00;2.00;;;;;12.91;67.32;100921.69;4997303;28;45327;-42
2023/04/15 09:58:25;;;;;;;;;1.33;1.00;;;;;12.82;67.65;100929.81;4997387;28;46210;-43
2023/04/15 10:00:52;;;;;;;;;1.33;1.33;;;;;12.65;68.01;100932.38;4997394;28;45345;-41
2023/04/15 10:03:24;;;;;;;;;2.00;2.00;;;;;12.62;68.21;100937.19;4997821;28;45337;-41
2023/04/15 10:05:52;;;;;;;;;2.00;2.00;;;;;12.54;67.82;100953.97;5000708;28;45432;-41
2023/04/15 10:08:19;;;;;;;;;3.00;2.00;;;;;12.44;67.86;100963.88;5000661;28;46101;-41
2023/04/15 10:10:47;;;;;;;;;1.00;1.00;;;;;12.39;68.15;100967.03;5000512;28;45253;-41
2023/04/15 10:13:15;;;;;;;;;3.00;3.00;;;;;12.36;68.28;100969.16;5000689;28;45544;-41
2023/04/15 10:15:44;;;;;;;;;2.00;2.00;;;;;12.29;68.43;100984.06;5000672;28;45175;-41
2023/04/15 10:18:11;;;;;;;;;2.67;2.67;;;;;12.19;68.48;100978.81;5000148;28;46253;-42
2023/04/15 10:20:37;;;;;;;;;3.00;3.00;;;;;12.27;69.05;100976.25;5000466;28;45401;-41
2023/04/15 10:23:03;;;;;;;;;2.00;2.00;;;;;12.33;69.00;100986.28;5000596;28;45273;-42
2023/04/15 10:25:29;;;;;;;;;2.67;2.67;;;;;12.41;68.41;100988.19;5000642;28;45434;-43
2023/04/15 10:27:56;;;;;;;;;2.00;2.00;;;;;12.63;68.33;100976.22;4982885;28;46474;-41
2023/04/15 10:30:25;;;;;;;;;3.00;3.00;;;;;12.90;67.70;100970.75;5000386;28;45290;-41
2023/04/15 10:32:56;;;;;;;;;3.00;3.00;;;;;13.09;66.39;100977.72;4999876;28;45286;-43
2023/04/15 10:35:22;;;;;;;;;1.33;1.33;;;;;13.26;65.91;100981.34;5000626;28;45357;-41
2023/04/15 10:37:48;;;;;;;;;2.33;2.00;;;;;13.35;65.13;100979.56;4999971;28;46195;-42
2023/04/15 10:40:27;;;;;;;;;3.00;3.00;;;;;13.48;65.03;100982.63;4999009;28;45315;-42
2023/04/15 10:43:01;;;;;;;;;3.33;3.33;;;;;13.60;64.99;100988.53;4999066;28;45364;-42
2023/04/15 10:45:36;;;;;;;;;2.33;2.00;;;;;13.60;64.78;100997.41;5000439;28;45344;-42
2023/04/15 10:48:07;;;;;;;;;5.00;3.33;;;;;13.54;64.96;101007.91;4999669;28;45999;-42
2023/04/15 10:50:33;;;;;;;;;2.67;2.67;;;;;13.36;64.46;100998.13;4999676;28;45354;-42
2023/04/15 10:53:01;;;;;;;;;5.50;3.00;;;;;13.31;64.85;101005.75;5000151;28;45722;-45
2023/04/15 10:55:31;;;;;;;;;2.67;2.67;;;;;13.22;64.86;101018.22;5000132;28;45362;-41
2023/04/15 10:57:59;;;;;;;;;8.00;4.00;;;;;13.22;65.45;101015.56;4999795;28;46435;-42
2023/04/15 11:00:27;;;;;;;;;3.00;2.00;;;;;13.12;65.13;101016.63;5000151;28;45329;-44
2023/04/15 11:02:57;;;;;;;;;2.67;2.67;;;;;13.06;65.75;101028.81;5000228;28;45433;-44
2023/04/15 11:05:40;;;;;;;;;4.00;3.00;;;;;13.06;65.18;101026.13;4999894;28;45489;-41
2023/04/15 11:08:07;;;;;;;;;3.00;3.00;;;;;13.10;65.09;101030.13;4999463;28;46202;-43
2023/04/15 11:10:32;;;;;;;;;3.67;2.00;;;;;13.30;64.36;101036.16;4999581;28;45271;-42
2023/04/15 11:12:58;;;;;;;;;2.33;2.33;;;;;13.64;63.86;101036.19;4999670;28;45342;-43
2023/04/15 11:15:50;;;;;;;;;3.00;3.00;;;;;13.71;63.91;101039.91;4999179;28;45388;-42
2023/04/15 11:18:27;;;;;;;;;3.33;3.00;;;;;13.61;63.91;101035.66;4996952;28;46591;-42
2023/04/15 11:20:56;;;;;;;;;2.67;2.67;;;;;13.54;63.77;101043.47;4999104;28;45283;-42